Time;durP1;ratioP1;P1;durP2;ratioP2;P2;SDS_P1;SDS_P2;PMS_P1;PMS_P2;Temp;Humidity;BMP_temperature;BMP_pressure;BME280_temperature;BME280_humidity;BME280_pressure;Samples;Min_cycle;Max_cycle;Signal;HPM_P1;HPM_P2
2022/02/26 00:00:19;;;;;;;61.33;30.85;;;;;;;1.40;52.60;95605.44;5086642;28;20468;-77
2022/02/26 00:02:45;;;;;;;55.90;24.95;;;;;;;1.42;51.52;95606.19;5084467;28;20413;-76
2022/02/26 00:05:10;;;;;;;42.55;20.13;;;;;;;1.45;51.86;95605.94;5087614;28;20482;-77
2022/02/26 00:07:36;;;;;;;38.97;17.23;;;;;;;1.41;51.94;95604.47;5086032;28;20024;-76
2022/02/26 00:10:03;;;;;;;38.38;17.60;;;;;;;1.37;53.09;95603.03;5087304;28;20466;-76
2022/02/26 00:12:28;;;;;;;34.70;16.15;;;;;;;1.37;52.44;95597.75;5085801;28;20020;-76
2022/02/26 00:14:54;;;;;;;29.42;14.27;;;;;;;1.30;52.85;95587.66;5086455;28;20051;-78
2022/02/26 00:17:19;;;;;;;22.77;12.07;;;;;;;1.34;52.85;95588.25;5087727;28;20085;-77
2022/02/26 00:19:44;;;;;;;30.08;15.27;;;;;;;1.38;53.27;95599.44;5085611;28;20028;-77
2022/02/26 00:22:10;;;;;;;28.20;14.30;;;;;;;1.36;52.96;95586.34;5087571;28;20023;-76
2022/02/26 00:24:35;;;;;;;32.92;15.38;;;;;;;1.34;52.81;95594.38;5067863;28;20486;-77
2022/02/26 00:27:01;;;;;;;30.02;14.00;;;;;;;1.30;52.66;95595.56;5068846;28;20498;-77
2022/02/26 00:29:26;;;;;;;30.38;14.77;;;;;;;1.33;52.34;95600.63;5086531;28;20506;-77
2022/02/26 00:31:52;;;;;;;43.20;18.83;;;;;;;1.33;52.70;95605.06;5068197;28;20621;-77
2022/02/26 00:34:17;;;;;;;61.92;28.08;;;;;;;1.39;53.08;95603.78;5087509;28;20031;-78
2022/02/26 00:36:43;;;;;;;74.28;30.70;;;;;;;1.37;53.16;95601.22;5084399;28;20406;-78
2022/02/26 00:39:08;;;;;;;74.93;30.67;;;;;;;1.41;53.24;95600.03;5085997;28;20031;-77
2022/02/26 00:41:34;;;;;;;67.25;29.23;;;;;;;1.48;52.54;95603.06;5084280;28;20020;-77
2022/02/26 00:43:59;;;;;;;66.25;28.25;;;;;;;1.39;53.79;95595.84;5087154;28;20024;-78
2022/02/26 00:46:25;;;;;;;63.78;26.60;;;;;;;1.33;54.30;95598.00;5085605;28;20082;-77
2022/02/26 00:51:34;;;;;;;97.97;38.45;;;;;;;1.32;53.34;95592.81;5086797;28;20039;-78
2022/02/26 00:53:59;;;;;;;100.50;38.60;;;;;;;1.34;52.78;95594.38;5085282;28;20028;-77
2022/02/26 00:56:25;;;;;;;77.70;33.03;;;;;;;1.38;53.35;95589.72;5068827;28;20040;-77
2022/02/26 00:58:52;;;;;;;78.63;32.30;;;;;;;1.35;53.35;95595.22;5085195;28;20020;-77
2022/02/26 01:01:17;;;;;;;75.43;31.10;;;;;;;1.33;53.79;95594.50;5086544;28;20028;-77
2022/02/26 01:03:42;;;;;;;58.83;28.15;;;;;;;1.25;53.94;95597.72;5085707;28;20020;-77
2022/02/26 01:06:08;;;;;;;58.63;24.08;;;;;;;1.14;53.59;95602.97;5084948;28;20028;-77
2022/02/26 01:08:33;;;;;;;55.25;22.02;;;;;;;1.07;53.83;95600.78;5086289;28;20077;-77
2022/02/26 01:10:59;;;;;;;51.08;20.80;;;;;;;1.00;53.95;95606.63;5085690;28;20066;-78
2022/02/26 01:13:24;;;;;;;49.22;22.23;;;;;;;1.02;53.35;95588.84;5086599;28;20024;-78
2022/02/26 01:15:49;;;;;;;59.05;22.30;;;;;;;0.98;53.54;95590.91;5085080;28;20036;-77
2022/02/26 01:18:15;;;;;;;55.70;22.42;;;;;;;0.92;53.45;95600.09;5086791;28;20034;-78
2022/02/26 01:20:40;;;;;;;56.70;23.35;;;;;;;0.88;53.94;95593.38;5083788;28;20043;-77
2022/02/26 01:23:06;;;;;;;60.55;26.05;;;;;;;0.88;54.63;95581.94;5086736;28;20032;-77
2022/02/26 01:25:31;;;;;;;54.30;22.65;;;;;;;0.84;54.39;95574.25;5085541;28;20020;-78
2022/02/26 01:27:57;;;;;;;44.78;20.45;;;;;;;0.83;54.49;95580.50;5085173;28;20016;-78
2022/02/26 01:30:22;;;;;;;42.30;18.75;;;;;;;0.77;54.21;95580.09;5086451;28;20486;-77
2022/02/26 01:32:48;;;;;;;37.88;16.88;;;;;;;0.70;54.79;95585.84;5085377;28;20571;-76
2022/02/26 01:35:13;;;;;;;36.00;15.85;;;;;;;0.63;54.71;95584.59;5086458;28;20032;-77
2022/02/26 01:37:39;;;;;;;34.33;15.57;;;;;;;0.63;54.93;95589.88;5084644;28;20020;-77
2022/02/26 01:40:05;;;;;;;33.70;13.85;;;;;;;0.63;54.45;95596.97;5086428;28;20024;-77
2022/02/26 01:42:30;;;;;;;31.27;12.80;;;;;;;0.55;54.26;95601.00;5085169;28;20039;-78
2022/02/26 01:44:55;;;;;;;25.90;13.70;;;;;;;0.54;54.98;95596.69;5086546;28;20024;-78
2022/02/26 01:47:21;;;;;;;34.70;15.27;;;;;;;0.58;54.65;95598.13;5083977;28;20056;-77
2022/02/26 01:49:46;;;;;;;30.30;14.05;;;;;;;0.55;54.29;95593.06;5085820;28;20016;-77
2022/02/26 01:52:12;;;;;;;29.70;13.00;;;;;;;0.53;53.79;95602.91;5084609;28;20028;-76
2022/02/26 01:54:37;;;;;;;33.60;13.30;;;;;;;0.43;54.20;95602.72;5083554;28;20020;-77
2022/02/26 01:57:04;;;;;;;27.33;12.52;;;;;;;0.44;55.03;95590.34;5086269;28;20042;-76
2022/02/26 01:59:29;;;;;;;24.85;12.25;;;;;;;0.49;54.26;95588.25;5083420;28;20483;-77
2022/02/26 02:01:54;;;;;;;30.65;11.43;;;;;;;0.46;53.11;95605.16;5084818;28;20020;-77
2022/02/26 02:04:20;;;;;;;23.92;12.98;;;;;;;0.40;53.81;95612.66;5084751;28;20505;-78
2022/02/26 02:06:45;;;;;;;24.23;11.68;;;;;;;0.35;54.06;95611.19;5085958;28;20016;-77
2022/02/26 02:09:11;;;;;;;21.80;11.48;;;;;;;0.34;54.45;95604.22;5085554;28;20028;-77
2022/02/26 02:11:36;;;;;;;23.00;11.13;;;;;;;0.33;53.73;95607.81;5067234;28;20016;-78
2022/02/26 02:14:02;;;;;;;23.42;12.15;;;;;;;0.31;53.83;95604.44;5070630;28;20502;-78
2022/02/26 02:16:28;;;;;;;26.75;13.00;;;;;;;0.30;53.76;95610.69;5087037;28;20021;-78
2022/02/26 02:18:53;;;;;;;31.35;14.40;;;;;;;0.23;53.76;95614.69;5090108;28;20039;-78
2022/02/26 02:21:19;;;;;;;25.23;12.48;;;;;;;0.21;54.43;95613.97;5088262;28;20028;-78
2022/02/26 02:23:45;;;;;;;27.42;13.18;;;;;;;0.20;55.23;95609.63;5089663;28;20028;-78
2022/02/26 02:26:10;;;;;;;36.28;14.85;;;;;;;0.18;54.82;95611.56;5088433;28;20031;-78
2022/02/26 02:28:37;;;;;;;26.83;13.23;;;;;;;0.22;54.08;95610.38;5088120;28;20020;-78
2022/02/26 02:31:02;;;;;;;29.38;13.63;;;;;;;0.22;54.32;95610.38;5089277;28;20109;-77
2022/02/26 02:33:28;;;;;;;35.35;14.50;;;;;;;0.20;54.46;95620.19;5086848;28;20032;-77
2022/02/26 02:35:53;;;;;;;31.73;14.23;;;;;;;0.21;54.57;95619.25;5089565;28;20517;-76
2022/02/26 02:38:19;;;;;;;32.80;15.70;;;;;;;0.22;54.60;95620.94;5087515;28;20032;-77
2022/02/26 02:40:45;;;;;;;32.33;16.48;;;;;;;0.17;54.84;95623.88;5089806;28;20035;-79
2022/02/26 02:43:11;;;;;;;35.30;17.60;;;;;;;0.20;55.46;95620.19;5086772;28;20062;-78
2022/02/26 02:45:38;;;;;;;54.17;20.05;;;;;;;0.24;54.84;95625.13;5088934;28;20063;-77
2022/02/26 02:48:03;;;;;;;34.33;16.40;;;;;;;0.23;55.47;95635.78;5088589;28;20024;-77
2022/02/26 02:50:29;;;;;;;34.38;16.63;;;;;;;0.31;55.40;95628.19;5088087;28;20024;-77
2022/02/26 02:52:54;;;;;;;41.47;18.45;;;;;;;0.29;54.84;95631.91;5089023;28;20444;-77
2022/02/26 02:55:21;;;;;;;36.88;18.42;;;;;;;0.31;55.62;95636.09;5086945;28;20020;-79
2022/02/26 02:57:47;;;;;;;36.50;17.35;;;;;;;0.29;55.99;95635.34;5089049;28;20426;-77
2022/02/26 03:00:13;;;;;;;41.25;18.75;;;;;;;0.28;55.29;95627.56;5086335;28;20024;-78
2022/02/26 03:02:39;;;;;;;34.63;16.90;;;;;;;0.24;55.96;95634.84;5070519;28;20307;-78
2022/02/26 03:05:05;;;;;;;35.08;17.42;;;;;;;0.20;56.25;95633.38;5069399;28;20054;-76
2022/02/26 03:07:30;;;;;;;40.30;17.33;;;;;;;0.19;56.26;95636.97;5088223;28;20402;-77
2022/02/26 03:09:56;;;;;;;44.58;18.67;;;;;;;0.13;57.05;95634.78;5088865;28;20020;-77
2022/02/26 03:12:21;;;;;;;47.13;22.27;;;;;;;0.19;56.55;95644.88;5087540;28;20499;-77
2022/02/26 03:14:47;;;;;;;50.83;22.85;;;;;;;0.19;56.92;95648.38;5088861;28;20475;-78
2022/02/26 03:17:12;;;;;;;48.17;22.63;;;;;;;0.25;56.69;95649.72;5085735;28;20058;-77
2022/02/26 03:19:38;;;;;;;60.15;24.15;;;;;;;0.29;56.47;95650.38;5088965;28;20020;-76
2022/02/26 03:22:04;;;;;;;55.97;23.08;;;;;;;0.32;56.89;95660.69;5087452;28;20455;-77
2022/02/26 03:24:30;;;;;;;50.20;25.02;;;;;;;0.31;57.04;95659.84;5087951;28;20383;-77
2022/02/26 03:26:57;;;;;;;47.53;21.55;;;;;;;0.24;57.04;95658.59;5086421;28;20097;-77
2022/02/26 03:29:23;;;;;;;42.08;20.45;;;;;;;0.28;56.45;95656.56;5087607;28;20020;-77
2022/02/26 03:31:49;;;;;;;53.40;19.17;;;;;;;0.19;56.54;95666.00;5053275;28;20034;-80
2022/02/26 03:34:14;;;;;;;46.75;23.08;;;;;;;0.20;57.11;95668.53;5051886;28;20032;-77
2022/02/26 03:36:40;;;;;;;41.50;19.90;;;;;;;0.20;57.04;95670.31;5088195;28;20036;-77
2022/02/26 03:39:05;;;;;;;37.35;17.70;;;;;;;0.17;56.89;95665.25;5085333;28;20492;-78
2022/02/26 03:41:31;;;;;;;34.00;16.60;;;;;;;0.08;56.02;95658.81;5086459;28;20491;-77
2022/02/26 03:43:56;;;;;;;30.33;15.70;;;;;;;0.03;57.22;95674.97;5086993;28;20028;-77
2022/02/26 03:46:23;;;;;;;32.80;15.30;;;;;;;-0.02;56.69;95685.00;5088207;28;20062;-77
2022/02/26 03:48:50;;;;;;;48.58;22.80;;;;;;;-0.09;57.11;95679.28;5087779;28;20141;-78
2022/02/26 03:51:15;;;;;;;57.78;29.20;;;;;;;-0.08;56.94;95674.88;5086067;28;20028;-77
2022/02/26 03:53:40;;;;;;;56.55;28.98;;;;;;;-0.11;57.36;95675.06;5086682;28;20109;-77
2022/02/26 03:56:06;;;;;;;51.80;23.05;;;;;;;-0.17;56.73;95671.06;5068080;28;20430;-76
2022/02/26 03:58:31;;;;;;;38.03;20.00;;;;;;;-0.26;57.04;95673.34;5088293;28;20031;-77
2022/02/26 04:00:57;;;;;;;40.53;19.52;;;;;;;-0.22;57.20;95679.28;5086321;28;20031;-77
2022/02/26 04:03:22;;;;;;;40.08;19.45;;;;;;;-0.17;57.65;95682.44;5087656;28;20020;-76
2022/02/26 04:05:47;;;;;;;38.35;16.65;;;;;;;-0.17;57.80;95679.81;5086737;28;20024;-77
2022/02/26 04:08:13;;;;;;;37.90;17.33;;;;;;;-0.17;57.11;95682.44;5087176;28;20376;-77
2022/02/26 04:10:38;;;;;;;33.67;17.40;;;;;;;-0.15;57.46;95682.34;5087081;28;20024;-78
2022/02/26 04:13:04;;;;;;;40.22;16.88;;;;;;;-0.18;57.75;95688.66;5086286;28;20020;-78
2022/02/26 04:15:29;;;;;;;34.00;15.80;;;;;;;-0.19;58.24;95696.66;5087767;28;20031;-78
2022/02/26 04:17:55;;;;;;;37.15;16.58;;;;;;;-0.18;57.87;95690.47;5084734;28;20020;-78
2022/02/26 04:20:20;;;;;;;27.27;15.27;;;;;;;-0.10;57.59;95684.66;5086406;28;20463;-77
2022/02/26 04:22:46;;;;;;;30.88;14.27;;;;;;;-0.13;57.89;95688.38;5084683;28;20016;-77
2022/02/26 04:25:11;;;;;;;34.20;14.45;;;;;;;-0.13;57.06;95683.91;5087015;28;20024;-78
2022/02/26 04:27:38;;;;;;;27.98;13.50;;;;;;;-0.16;57.32;95689.41;5085227;28;20107;-78
2022/02/26 04:30:08;;;;;;;29.13;14.52;;;;;;;-0.11;57.04;95694.34;5084835;28;20038;-78
2022/02/26 04:32:34;;;;;;;29.42;14.77;;;;;;;-0.16;56.13;95697.31;5087224;28;20059;-78
2022/02/26 04:35:00;;;;;;;31.25;14.88;;;;;;;-0.09;56.63;95696.88;5083592;28;20059;-77
2022/02/26 04:37:26;;;;;;;31.33;14.27;;;;;;;-0.09;56.41;95699.53;5087145;28;20016;-77
2022/02/26 04:39:51;;;;;;;31.70;13.70;;;;;;;-0.05;56.51;95690.47;5084254;28;20078;-79
2022/02/26 04:42:17;;;;;;;36.47;13.73;;;;;;;-0.04;56.51;95684.25;5085570;28;20043;-78
2022/02/26 04:44:44;;;;;;;28.08;14.00;;;;;;;-0.07;56.49;95687.94;5067912;28;20066;-79
2022/02/26 04:47:10;;;;;;;24.15;13.80;;;;;;;-0.05;56.32;95693.13;5051608;28;20024;-77
2022/02/26 04:49:36;;;;;;;31.92;13.90;;;;;;;-0.09;56.61;95696.88;5086576;28;20035;-78
2022/02/26 04:52:01;;;;;;;27.35;13.77;;;;;;;-0.08;56.73;95703.88;5085440;28;20027;-77
2022/02/26 04:54:27;;;;;;;29.42;14.20;;;;;;;-0.05;57.42;95708.94;5085559;28;20043;-78
2022/02/26 04:56:53;;;;;;;31.30;15.05;;;;;;;-0.08;57.13;95717.06;5084752;28;20059;-78
2022/02/26 04:59:19;;;;;;;26.33;13.27;;;;;;;-0.13;57.37;95715.56;5086747;28;20032;-80
2022/02/26 05:01:44;;;;;;;31.15;15.25;;;;;;;-0.23;57.88;95722.41;5084142;28;20020;-78
2022/02/26 05:04:10;;;;;;;32.42;15.38;;;;;;;-0.38;57.63;95733.03;5085050;28;20020;-77
2022/02/26 05:06:35;;;;;;;34.80;15.00;;;;;;;-0.50;58.46;95741.75;5068055;28;20028;-77
2022/02/26 05:09:01;;;;;;;29.02;15.35;;;;;;;-0.41;58.12;95738.50;5085607;28;20028;-79
2022/02/26 05:11:26;;;;;;;35.75;14.90;;;;;;;-0.38;57.65;95735.66;5087025;28;20418;-79
2022/02/26 05:13:51;;;;;;;37.10;14.95;;;;;;;-0.35;57.91;95741.66;5066742;28;20031;-77
2022/02/26 05:16:17;;;;;;;42.75;16.60;;;;;;;-0.34;58.14;95744.22;5086733;28;20020;-76
2022/02/26 05:18:42;;;;;;;38.47;16.10;;;;;;;-0.35;58.42;95746.94;5085454;28;20402;-77
2022/02/26 05:21:08;;;;;;;46.85;16.92;;;;;;;-0.36;58.02;95761.94;5086387;28;20402;-78
2022/02/26 05:23:33;;;;;;;41.40;18.08;;;;;;;-0.32;57.49;95749.41;5085508;28;20020;-82
2022/02/26 05:25:59;;;;;;;45.72;19.67;;;;;;;-0.29;57.89;95765.84;5084921;28;20078;-77
2022/02/26 05:28:24;;;;;;;36.70;16.30;;;;;;;-0.30;57.61;95766.78;5067841;28;20024;-78
2022/02/26 05:30:50;;;;;;;46.78;19.15;;;;;;;-0.30;57.63;95765.94;5050616;28;20034;-77
2022/02/26 05:33:15;;;;;;;37.63;18.73;;;;;;;-0.20;57.17;95774.09;5085184;28;20031;-78
2022/02/26 05:35:41;;;;;;;33.58;16.92;;;;;;;-0.11;56.44;95772.63;5067528;28;20032;-77
2022/02/26 05:38:06;;;;;;;43.50;16.52;;;;;;;-0.01;56.21;95784.25;5086702;28;20032;-77
2022/02/26 05:40:31;;;;;;;32.20;16.45;;;;;;;-0.01;56.04;95782.47;5083965;28;20051;-77
2022/02/26 05:42:57;;;;;;;32.53;15.23;;;;;;;0.05;55.90;95781.19;5086199;28;20487;-78
2022/02/26 05:45:23;;;;;;;38.50;16.33;;;;;;;0.11;55.83;95777.31;5086053;28;20297;-77
2022/02/26 05:47:48;;;;;;;33.97;15.52;;;;;;;0.19;56.64;95782.91;5087157;28;20020;-78
2022/02/26 05:50:14;;;;;;;35.65;17.42;;;;;;;0.22;57.21;95787.13;5090211;28;20180;-78
2022/02/26 05:52:39;;;;;;;30.35;14.30;;;;;;;0.27;57.48;95779.75;5054186;28;20021;-80
2022/02/26 05:55:05;;;;;;;34.25;17.20;;;;;;;0.39;56.02;95785.16;5088796;28;20042;-77
2022/02/26 05:57:31;;;;;;;32.17;17.10;;;;;;;0.45;56.04;95785.53;5089494;28;20126;-77
2022/02/26 05:59:56;;;;;;;33.22;17.50;;;;;;;0.61;55.92;95789.78;5089886;28;20566;-77
2022/02/26 06:02:22;;;;;;;36.05;18.38;;;;;;;0.77;55.69;95789.56;5088748;28;20024;-78
2022/02/26 06:04:47;;;;;;;41.15;17.88;;;;;;;0.93;55.80;95794.63;5091392;28;20032;-77
2022/02/26 06:07:12;;;;;;;37.72;19.27;;;;;;;0.97;54.44;95797.88;5089333;28;20031;-78
2022/02/26 06:09:38;;;;;;;40.63;20.25;;;;;;;1.16;54.84;95799.22;5088821;28;20020;-78
2022/02/26 06:12:04;;;;;;;46.08;22.42;;;;;;;1.22;55.28;95801.41;5089968;28;20417;-78
2022/02/26 06:14:29;;;;;;;49.58;23.85;;;;;;;1.45;53.89;95804.22;5087768;28;20445;-78
2022/02/26 06:16:55;;;;;;;48.97;25.10;;;;;;;1.70;53.11;95799.75;5088695;28;20024;-80
2022/02/26 06:19:20;;;;;;;45.88;25.60;;;;;;;1.75;52.27;95802.91;5088141;28;20449;-80
2022/02/26 06:21:48;;;;;;;48.72;23.70;;;;;;;1.56;52.66;95792.84;5071370;28;20028;-78
2022/02/26 06:24:14;;;;;;;46.58;22.70;;;;;;;1.70;53.05;95800.63;5087002;28;20560;-79
2022/02/26 06:26:39;;;;;;;45.03;22.35;;;;;;;1.71;54.32;95801.44;5087915;28;20383;-79
2022/02/26 06:29:05;;;;;;;40.00;21.35;;;;;;;1.82;53.67;95813.88;5089225;28;20027;-78
2022/02/26 06:31:30;;;;;;;44.95;23.20;;;;;;;1.92;54.07;95814.88;5087977;28;20028;-78
2022/02/26 06:33:55;;;;;;;46.33;22.33;;;;;;;2.05;53.39;95814.81;5089594;28;20020;-77
2022/02/26 06:36:21;;;;;;;41.25;21.98;;;;;;;2.09;53.77;95805.72;5087587;28;20066;-77
2022/02/26 06:38:46;;;;;;;38.15;22.33;;;;;;;2.20;53.60;95811.97;5089344;28;20069;-78
2022/02/26 06:41:12;;;;;;;48.45;20.35;;;;;;;2.64;53.21;95825.44;5087950;28;20020;-77
2022/02/26 06:43:38;;;;;;;43.55;20.17;;;;;;;3.02;52.35;95809.31;5087335;28;20025;-79
2022/02/26 06:46:06;;;;;;;50.25;20.00;;;;;;;3.36;51.98;95817.25;5088451;28;20046;-77
2022/02/26 06:48:31;;;;;;;44.22;18.67;;;;;;;3.67;51.28;95809.50;5086655;28;20367;-79
2022/02/26 06:50:57;;;;;;;34.22;17.65;;;;;;;3.72;51.13;95809.13;5087739;28;20024;-80
2022/02/26 06:53:22;;;;;;;32.42;17.77;;;;;;;3.66;51.85;95804.31;5085830;28;20028;-78
2022/02/26 06:55:48;;;;;;;39.13;18.60;;;;;;;3.65;51.94;95806.13;5087494;28;20082;-78
2022/02/26 06:58:13;;;;;;;31.52;16.65;;;;;;;4.06;51.77;95808.97;5085472;28;20387;-78
2022/02/26 07:00:39;;;;;;;41.78;18.92;;;;;;;4.27;51.23;95812.66;5088656;28;20555;-78
2022/02/26 07:03:04;;;;;;;34.22;16.90;;;;;;;4.54;50.84;95806.81;5069628;28;20425;-77
2022/02/26 07:05:29;;;;;;;35.42;17.73;;;;;;;4.55;49.68;95815.63;5088319;28;20028;-78
2022/02/26 07:07:55;;;;;;;31.30;17.40;;;;;;;4.86;50.14;95818.34;5088839;28;20024;-77
2022/02/26 07:10:20;;;;;;;42.92;18.30;;;;;;;5.03;49.53;95824.03;5070146;28;20089;-80
2022/02/26 07:12:46;;;;;;;30.98;17.33;;;;;;;5.23;49.01;95816.97;5087307;28;20421;-78
2022/02/26 07:15:11;;;;;;;32.70;16.52;;;;;;;5.28;49.18;95817.41;5068687;28;20035;-78
2022/02/26 07:17:37;;;;;;;34.10;17.10;;;;;;;5.52;48.78;95826.00;5088555;28;20024;-76
2022/02/26 07:20:03;;;;;;;31.55;16.80;;;;;;;5.69;48.98;95824.53;5087010;28;20078;-76
2022/02/26 07:22:29;;;;;;;36.17;16.27;;;;;;;5.85;48.19;95820.47;5086668;28;20027;-78
2022/02/26 07:24:54;;;;;;;32.97;15.65;;;;;;;6.10;48.20;95826.28;5087571;28;20020;-81
2022/02/26 07:27:20;;;;;;;26.00;15.90;;;;;;;6.27;48.58;95817.59;5086232;28;20154;-77
2022/02/26 07:29:45;;;;;;;31.40;15.90;;;;;;;6.58;46.96;95818.41;5086698;28;20040;-75
2022/02/26 07:32:11;;;;;;;26.27;15.80;;;;;;;6.85;46.77;95825.63;5086983;28;20035;-73
2022/02/26 07:34:36;;;;;;;28.35;14.10;;;;;;;7.02;46.58;95815.22;5088035;28;20024;-76
2022/02/26 07:37:02;;;;;;;25.48;14.75;;;;;;;7.13;46.32;95811.53;5085444;28;20028;-77
2022/02/26 07:39:27;;;;;;;22.75;14.07;;;;;;;7.17;46.80;95802.25;5086683;28;20024;-75
2022/02/26 07:41:53;;;;;;;26.10;13.93;;;;;;;7.33;46.26;95811.44;5086622;28;20398;-75
2022/02/26 07:44:18;;;;;;;24.20;14.80;;;;;;;7.37;46.57;95815.50;5087841;28;20518;-74
2022/02/26 07:46:43;;;;;;;28.33;15.10;;;;;;;7.45;46.49;95806.78;5069012;28;20043;-77
2022/02/26 07:49:09;;;;;;;27.42;15.65;;;;;;;7.44;46.20;95800.59;5086980;28;20028;-74
2022/02/26 07:51:34;;;;;;;27.90;15.55;;;;;;;7.51;46.43;95807.00;5086356;28;20028;-75
2022/02/26 07:54:00;;;;;;;26.58;16.25;;;;;;;7.53;46.69;95805.03;5085975;28;20069;-74
2022/02/26 07:56:25;;;;;;;26.42;15.18;;;;;;;7.57;46.14;95799.41;5086375;28;20036;-73
2022/02/26 07:58:51;;;;;;;27.88;15.48;;;;;;;7.47;46.43;95802.97;5086233;28;20028;-74
2022/02/26 08:01:17;;;;;;;24.48;15.43;;;;;;;7.37;46.69;95796.81;5087312;28;20028;-74
2022/02/26 08:03:43;;;;;;;24.42;15.73;;;;;;;7.47;46.80;95800.28;5086487;28;20028;-74
2022/02/26 08:06:08;;;;;;;28.52;15.50;;;;;;;7.66;46.34;95806.50;5086943;28;20078;-75
2022/02/26 08:08:34;;;;;;;27.65;15.60;;;;;;;7.72;46.36;95792.53;5085964;28;20051;-74
2022/02/26 08:10:59;;;;;;;24.70;14.82;;;;;;;7.87;45.97;95792.88;5083683;28;20032;-74
2022/02/26 08:13:25;;;;;;;25.73;15.00;;;;;;;7.96;46.04;95787.63;5086058;28;20121;-72
2022/02/26 08:15:50;;;;;;;21.73;14.05;;;;;;;8.08;45.60;95785.56;5085510;28;20065;-75
2022/02/26 08:18:16;;;;;;;21.05;13.15;;;;;;;8.18;45.22;95783.66;5085947;28;20020;-76
2022/02/26 08:20:41;;;;;;;24.95;15.23;;;;;;;8.21;45.67;95772.66;5085924;28;20036;-73
2022/02/26 08:23:06;;;;;;;21.30;13.48;;;;;;;8.35;45.21;95778.47;5086948;28;20040;-72
2022/02/26 08:25:32;;;;;;;22.73;13.10;;;;;;;8.43;45.04;95775.00;5086467;28;20371;-72
2022/02/26 08:27:57;;;;;;;23.05;13.43;;;;;;;8.41;45.38;95778.66;5086028;28;20359;-73
2022/02/26 08:30:23;;;;;;;22.63;14.45;;;;;;;8.46;45.18;95770.19;5087049;28;20028;-73
2022/02/26 08:32:49;;;;;;;29.17;15.27;;;;;;;8.62;44.91;95774.88;5083909;28;20479;-72
2022/02/26 08:35:15;;;;;;;21.95;13.13;;;;;;;8.76;44.37;95776.13;5087190;28;20081;-70
2022/02/26 08:37:40;;;;;;;21.85;13.77;;;;;;;8.82;44.64;95771.16;5086237;28;20020;-71
2022/02/26 08:40:07;;;;;;;24.25;14.25;;;;;;;8.94;44.23;95764.53;5085349;28;20032;-72
2022/02/26 08:42:32;;;;;;;28.40;14.02;;;;;;;8.97;43.98;95756.19;5085761;28;20024;-71
2022/02/26 08:44:57;;;;;;;25.45;14.13;;;;;;;9.13;44.20;95759.94;5086153;28;20028;-72
2022/02/26 08:47:23;;;;;;;23.25;13.07;;;;;;;9.27;43.77;95753.13;5086534;28;20028;-72
2022/02/26 08:49:48;;;;;;;19.02;13.23;;;;;;;9.38;42.96;95754.69;5084367;28;20020;-73
2022/02/26 08:52:14;;;;;;;27.77;14.75;;;;;;;9.35;41.90;95752.34;5087048;28;20024;-72
2022/02/26 08:54:39;;;;;;;20.85;14.50;;;;;;;9.36;42.08;95749.50;5083874;28;20020;-72
2022/02/26 08:57:05;;;;;;;22.48;13.15;;;;;;;9.42;43.28;95753.34;5086443;28;20040;-72
2022/02/26 08:59:30;;;;;;;25.10;13.15;;;;;;;9.59;41.92;95748.06;5085632;28;20512;-73
2022/02/26 09:01:57;;;;;;;19.88;12.90;;;;;;;9.66;41.49;95743.72;5084918;28;20028;-72
2022/02/26 09:04:22;;;;;;;18.88;12.77;;;;;;;9.63;41.86;95744.06;5084550;28;20035;-72
2022/02/26 09:06:48;;;;;;;17.52;11.45;;;;;;;9.77;40.71;95739.88;5086108;28;20060;-70
2022/02/26 09:09:13;;;;;;;18.13;10.50;;;;;;;9.85;40.91;95736.41;5084797;28;20081;-71
2022/02/26 09:11:38;;;;;;;20.05;11.82;;;;;;;9.94;40.51;95743.44;5083824;28;20472;-72
2022/02/26 09:14:04;;;;;;;21.52;12.68;;;;;;;9.82;40.54;95742.09;5086411;28;20024;-72
2022/02/26 09:16:30;;;;;;;16.58;11.82;;;;;;;9.78;40.41;95738.91;5085574;28;20024;-72
2022/02/26 09:18:55;;;;;;;19.02;11.57;;;;;;;9.79;40.66;95734.38;5086604;28;20030;-73
2022/02/26 09:21:21;;;;;;;18.27;11.70;;;;;;;9.92;40.85;95737.41;5085309;28;20040;-72
2022/02/26 09:23:47;;;;;;;19.38;12.73;;;;;;;9.96;39.56;95733.38;5089064;28;20032;-72
2022/02/26 09:26:12;;;;;;;16.38;10.90;;;;;;;9.73;40.01;95734.03;5090292;28;20102;-71
2022/02/26 09:28:41;;;;;;;18.15;10.35;;;;;;;9.66;40.36;95732.19;5089659;28;20397;-71
2022/02/26 09:31:07;;;;;;;16.20;11.23;;;;;;;9.71;40.35;95736.03;5090597;28;20085;-72
2022/02/26 09:33:32;;;;;;;18.25;10.55;;;;;;;9.84;39.80;95732.03;5088840;28;20024;-72
2022/02/26 09:35:59;;;;;;;18.95;11.38;;;;;;;9.92;39.31;95740.09;5089303;28;20030;-71
2022/02/26 09:38:24;;;;;;;15.93;10.30;;;;;;;9.97;38.87;95740.44;5088824;28;20089;-72
2022/02/26 09:40:50;;;;;;;17.27;11.25;;;;;;;9.89;38.86;95733.25;5090633;28;20095;-72
2022/02/26 09:43:15;;;;;;;13.88;10.18;;;;;;;10.02;39.00;95737.25;5071299;28;20414;-71
2022/02/26 09:45:41;;;;;;;19.25;10.05;;;;;;;9.95;39.04;95742.44;5089853;28;20491;-72
2022/02/26 09:48:06;;;;;;;15.75;10.63;;;;;;;9.94;39.78;95730.06;5088856;28;20718;-73
2022/02/26 09:50:32;;;;;;;14.43;10.23;;;;;;;10.04;38.94;95724.53;5087601;28;20085;-72
2022/02/26 09:52:57;;;;;;;19.67;11.18;;;;;;;10.03;39.37;95728.22;5090486;28;20024;-72
2022/02/26 09:55:22;;;;;;;14.90;11.00;;;;;;;9.99;38.79;95722.38;5069832;28;20036;-71
2022/02/26 09:57:48;;;;;;;16.35;10.75;;;;;;;10.08;39.34;95719.66;5089991;28;20047;-73
2022/02/26 10:00:14;;;;;;;19.30;10.45;;;;;;;10.06;39.41;95721.69;5087175;28;20032;-71
2022/02/26 10:02:39;;;;;;;15.70;10.70;;;;;;;10.03;38.62;95733.56;5089804;28;20032;-72
2022/02/26 10:05:09;;;;;;;16.83;10.55;;;;;;;10.01;38.97;95720.34;5089439;28;20024;-73
2022/02/26 10:07:35;;;;;;;17.48;11.45;;;;;;;10.00;38.64;95716.00;5089039;28;20024;-71
2022/02/26 10:10:06;;;;;;;19.60;10.80;;;;;;;10.08;39.36;95719.66;5090140;28;20459;-73
2022/02/26 10:12:33;;;;;;;15.63;10.30;;;;;;;10.11;39.14;95708.63;5070549;28;20039;-72
2022/02/26 10:15:21;;;;;;;15.88;12.18;;;;;;;10.14;38.99;95714.47;5088310;28;20027;-73
2022/02/26 10:17:58;;;;;;;18.92;11.65;;;;;;;10.25;39.48;95713.31;5087479;28;20035;-71
2022/02/26 10:20:23;;;;;;;16.08;10.60;;;;;;;10.05;39.24;95707.44;5087642;28;20020;-72
2022/02/26 10:22:51;;;;;;;18.10;11.43;;;;;;;10.19;38.48;95699.75;5088201;28;20027;-71
2022/02/26 10:25:19;;;;;;;15.75;10.70;;;;;;;10.20;39.71;95702.28;5086643;28;20047;-72
2022/02/26 10:27:52;;;;;;;16.05;10.88;;;;;;;10.27;39.67;95703.25;5089748;28;20050;-71
2022/02/26 10:30:30;;;;;;;15.02;10.43;;;;;;;10.30;38.80;95698.56;5087947;28;20020;-73
2022/02/26 10:33:17;;;;;;;24.65;11.60;;;;;;;10.10;39.19;95696.22;5087290;28;20068;-72
2022/02/26 10:35:47;;;;;;;15.63;10.93;;;;;;;10.16;39.33;95690.19;5087929;28;20067;-73
2022/02/26 10:38:27;;;;;;;17.23;10.65;;;;;;;10.27;39.66;95683.66;5086320;28;20460;-72
2022/02/26 10:41:04;;;;;;;16.27;11.68;;;;;;;10.32;39.58;95689.34;5087946;28;20036;-72
2022/02/26 10:43:46;;;;;;;18.25;11.23;;;;;;;10.19;39.84;95681.00;5087856;28;20054;-76
2022/02/26 10:46:27;;;;;;;17.95;11.52;;;;;;;10.07;40.01;95683.16;5071527;28;20478;-72
2022/02/26 10:49:00;;;;;;;16.95;11.68;;;;;;;10.20;39.36;95682.66;5089177;28;20503;-71
2022/02/26 10:51:33;;;;;;;17.45;10.85;;;;;;;10.20;38.70;95683.50;5087015;28;20028;-72
2022/02/26 10:54:02;;;;;;;16.77;11.35;;;;;;;10.25;39.85;95680.31;5087865;28;20078;-72
2022/02/26 10:56:38;;;;;;;18.83;11.05;;;;;;;10.33;39.83;95663.38;5086224;28;20071;-72
2022/02/26 10:59:08;;;;;;;16.42;11.27;;;;;;;10.44;39.61;95665.72;5070906;28;20524;-72
2022/02/26 11:01:33;;;;;;;16.20;10.95;;;;;;;10.58;38.75;95668.72;5088231;28;20576;-72
2022/02/26 11:04:01;;;;;;;18.05;10.90;;;;;;;10.63;38.00;95664.53;5069447;28;20103;-72
2022/02/26 11:06:27;;;;;;;14.00;10.25;;;;;;;10.51;37.90;95661.34;5071241;28;20035;-74
2022/02/26 11:08:53;;;;;;;17.63;11.15;;;;;;;10.41;39.26;95666.06;5069388;28;20486;-73
2022/02/26 11:11:19;;;;;;;17.75;10.93;;;;;;;10.42;38.46;95656.16;5088792;28;20028;-73
2022/02/26 11:13:44;;;;;;;14.90;9.75;;;;;;;10.50;38.60;95648.13;5087317;28;20028;-72
2022/02/26 11:16:10;;;;;;;16.52;10.02;;;;;;;10.44;37.70;95638.91;5088444;28;20035;-73
2022/02/26 11:18:40;;;;;;;16.33;10.32;;;;;;;10.56;36.92;95647.44;5086616;28;20023;-73